createdAt,value
2022-12-08T00:01:27.368Z,3.34
2022-12-08T00:03:53.981Z,3.34
2022-12-08T00:06:20.457Z,3.35
2022-12-08T00:08:46.899Z,3.36
2022-12-08T00:11:13.299Z,3.37
2022-12-08T00:13:39.727Z,3.38
2022-12-08T00:16:06.216Z,3.40
2022-12-08T00:18:32.778Z,3.37
2022-12-08T00:20:59.272Z,3.43
2022-12-08T00:23:26.620Z,3.38
2022-12-08T00:25:53.056Z,3.30
2022-12-08T00:28:19.467Z,3.30
2022-12-08T00:30:45.903Z,3.30
2022-12-08T00:33:12.333Z,3.27
2022-12-08T00:35:42.928Z,3.29
2022-12-08T00:38:09.734Z,3.28
2022-12-08T00:40:36.131Z,3.27
2022-12-08T00:43:02.540Z,3.28
2022-12-08T00:45:29.084Z,3.30
2022-12-08T00:47:55.620Z,3.33
2022-12-08T00:50:22.025Z,3.31
2022-12-08T00:52:48.470Z,3.32
2022-12-08T00:55:15.411Z,3.33
2022-12-08T00:57:42.016Z,3.32
2022-12-08T01:00:08.503Z,3.32
2022-12-08T01:02:34.929Z,3.33
2022-12-08T01:05:01.484Z,3.36
2022-12-08T01:07:27.899Z,3.38
2022-12-08T01:09:54.303Z,3.41
2022-12-08T01:12:20.781Z,3.41
2022-12-08T01:14:47.249Z,3.42
2022-12-08T01:17:13.756Z,3.40
2022-12-08T01:19:40.246Z,3.43
2022-12-08T01:22:06.646Z,3.42
2022-12-08T01:24:33.062Z,3.46
2022-12-08T01:26:59.493Z,3.41
2022-12-08T01:29:25.946Z,3.41
2022-12-08T01:31:52.400Z,3.44
2022-12-08T01:34:18.889Z,3.46
2022-12-08T01:36:45.301Z,3.49
2022-12-08T01:39:11.764Z,3.51
2022-12-08T01:41:38.603Z,3.52
2022-12-08T01:44:05.196Z,3.55
2022-12-08T01:46:31.702Z,3.55
2022-12-08T01:48:58.166Z,3.56
2022-12-08T01:51:24.594Z,3.56
2022-12-08T01:53:51.036Z,3.56
2022-12-08T01:56:17.461Z,3.55
2022-12-08T01:58:43.867Z,3.56
2022-12-08T02:01:10.393Z,3.54
2022-12-08T02:03:36.867Z,3.53
2022-12-08T02:06:03.261Z,3.55
2022-12-08T02:08:29.709Z,3.55
2022-12-08T02:10:56.183Z,3.55
2022-12-08T02:13:22.605Z,3.57
2022-12-08T02:15:49.082Z,3.57
2022-12-08T02:18:15.562Z,3.56
2022-12-08T02:20:41.972Z,3.55
2022-12-08T02:23:08.396Z,3.55
2022-12-08T02:25:34.928Z,3.56
2022-12-08T02:28:01.348Z,3.55
2022-12-08T02:30:27.836Z,3.53
2022-12-08T02:32:54.280Z,3.51
2022-12-08T02:35:20.792Z,3.50
2022-12-08T02:37:47.238Z,3.52
2022-12-08T02:40:13.679Z,3.51
2022-12-08T02:42:40.138Z,3.53
2022-12-08T02:45:06.595Z,3.54
2022-12-08T02:47:33.038Z,3.54
2022-12-08T02:49:59.489Z,3.57
2022-12-08T02:52:26.023Z,3.55
2022-12-08T02:54:52.490Z,3.54
2022-12-08T02:57:18.926Z,3.53
2022-12-08T02:59:45.357Z,3.49
2022-12-08T03:02:11.839Z,3.47
2022-12-08T03:04:38.304Z,3.47
2022-12-08T03:07:04.737Z,3.44
2022-12-08T03:09:31.188Z,3.42
2022-12-08T03:11:57.658Z,3.45
2022-12-08T03:14:24.087Z,3.44
2022-12-08T03:16:50.524Z,3.40
2022-12-08T03:19:16.962Z,3.35
2022-12-08T03:21:43.451Z,3.33
2022-12-08T03:24:09.905Z,3.35
2022-12-08T03:26:36.330Z,3.37
2022-12-08T03:29:02.768Z,3.37
2022-12-08T03:31:29.260Z,3.40
2022-12-08T03:33:55.735Z,3.41
2022-12-08T03:36:22.374Z,3.45
2022-12-08T03:38:48.981Z,3.46
2022-12-08T03:41:15.417Z,3.48
2022-12-08T03:43:41.847Z,3.51
2022-12-08T03:46:08.315Z,3.55
2022-12-08T03:48:35.336Z,3.53
2022-12-08T03:51:01.779Z,3.49
2022-12-08T03:53:28.207Z,3.52
2022-12-08T03:55:54.627Z,3.50
2022-12-08T03:58:21.071Z,3.50
2022-12-08T04:00:47.510Z,3.47
2022-12-08T04:03:14.946Z,3.46
2022-12-08T04:05:42.499Z,3.48
2022-12-08T04:08:09.022Z,3.47
2022-12-08T04:10:35.514Z,3.49
2022-12-08T04:13:01.916Z,3.50
2022-12-08T04:15:28.320Z,3.51
2022-12-08T04:17:54.760Z,3.51
2022-12-08T04:20:21.192Z,3.49
2022-12-08T04:22:47.591Z,3.49
2022-12-08T04:25:14.146Z,3.54
2022-12-08T04:27:40.585Z,3.53
2022-12-08T04:30:07.258Z,3.53
2022-12-08T04:32:33.930Z,3.56
2022-12-08T04:35:00.365Z,3.48
2022-12-08T04:37:26.801Z,3.44
2022-12-08T04:39:53.228Z,3.45
2022-12-08T04:42:19.642Z,3.46
2022-12-08T04:44:46.077Z,3.47
2022-12-08T04:47:12.551Z,3.51
2022-12-08T04:49:39.038Z,3.54
2022-12-08T04:52:05.481Z,3.52
2022-12-08T04:54:31.906Z,3.52
2022-12-08T04:56:58.328Z,3.50
2022-12-08T04:59:24.772Z,3.48
2022-12-08T05:01:51.334Z,3.48
2022-12-08T05:04:17.840Z,3.50
2022-12-08T05:06:44.282Z,3.52
2022-12-08T05:09:10.703Z,3.44
2022-12-08T05:11:37.143Z,3.41
2022-12-08T05:14:03.582Z,3.34
2022-12-08T05:16:30.106Z,3.30
2022-12-08T05:18:56.625Z,3.24
2022-12-08T05:21:23.038Z,3.16
2022-12-08T05:23:49.499Z,3.06
2022-12-08T05:26:15.937Z,2.97
2022-12-08T05:28:43.598Z,2.89
2022-12-08T05:31:10.424Z,2.81
2022-12-08T05:33:36.918Z,2.75
2022-12-08T05:36:03.444Z,2.72
2022-12-08T05:38:29.897Z,2.69
2022-12-08T05:40:56.332Z,2.64
2022-12-08T05:43:22.799Z,2.60
2022-12-08T05:45:49.279Z,2.54
2022-12-08T05:48:15.798Z,2.50
2022-12-08T05:50:42.924Z,2.44
2022-12-08T05:53:09.534Z,2.38
2022-12-08T05:55:36.120Z,2.34
2022-12-08T05:58:07.837Z,2.33
2022-12-08T06:00:35.323Z,2.30
2022-12-08T06:03:01.789Z,2.30
2022-12-08T06:05:28.363Z,2.29
2022-12-08T06:07:54.954Z,2.28
2022-12-08T06:10:21.429Z,2.27
2022-12-08T06:12:47.830Z,2.32
2022-12-08T06:15:14.314Z,2.26
2022-12-08T06:17:40.749Z,2.27
2022-12-08T06:20:07.449Z,2.27
2022-12-08T06:22:34.147Z,2.29
2022-12-08T06:25:00.595Z,2.32
2022-12-08T06:27:27.019Z,2.32
2022-12-08T06:29:53.482Z,2.34
2022-12-08T06:32:24.343Z,2.36
2022-12-08T06:34:53.597Z,2.39
2022-12-08T06:37:20.023Z,2.40
2022-12-08T06:39:46.451Z,2.44
2022-12-08T06:42:12.873Z,2.48
2022-12-08T06:44:39.322Z,2.48
2022-12-08T06:47:05.791Z,2.55
2022-12-08T06:49:32.235Z,2.50
2022-12-08T06:51:58.727Z,2.48
2022-12-08T06:54:25.158Z,2.52
2022-12-08T06:56:51.598Z,2.52
2022-12-08T06:59:18.026Z,2.57
2022-12-08T07:01:44.523Z,2.54
2022-12-08T07:04:11.026Z,2.55
2022-12-08T07:06:37.477Z,2.60
2022-12-08T07:09:03.964Z,2.52
2022-12-08T07:11:30.375Z,2.45
2022-12-08T07:13:56.839Z,2.45
2022-12-08T07:16:23.423Z,2.50
2022-12-08T07:18:49.898Z,2.53
2022-12-08T07:21:16.387Z,2.48
2022-12-08T07:23:42.800Z,2.52
2022-12-08T07:26:09.255Z,2.54
2022-12-08T07:28:35.780Z,2.58
2022-12-08T07:31:02.261Z,2.61
2022-12-08T07:33:28.747Z,2.65
2022-12-08T07:35:55.172Z,2.67
2022-12-08T07:38:21.721Z,2.69
2022-12-08T07:40:48.133Z,2.71
2022-12-08T07:43:14.545Z,2.75
2022-12-08T07:45:40.991Z,2.78
2022-12-08T07:48:08.540Z,2.82
2022-12-08T07:50:35.139Z,2.85
2022-12-08T07:53:02.724Z,2.76
2022-12-08T07:55:29.314Z,2.76
2022-12-08T07:57:55.927Z,2.72
2022-12-08T08:00:22.530Z,2.71
2022-12-08T08:02:49.044Z,2.74
2022-12-08T08:05:15.535Z,2.78
2022-12-08T08:07:42.089Z,2.83
2022-12-08T08:10:08.627Z,2.85
2022-12-08T08:12:35.085Z,2.90
2022-12-08T08:15:01.613Z,2.93
2022-12-08T08:17:28.275Z,2.95
2022-12-08T08:19:55.262Z,2.93
2022-12-08T11:49:41.296Z,5.97
2022-12-08T11:52:08.770Z,6.01
2022-12-08T11:54:35.427Z,6.00
2022-12-08T11:57:01.904Z,6.04
2022-12-08T11:59:28.319Z,6.09
2022-12-08T12:01:54.826Z,6.07
2022-12-08T12:04:21.358Z,6.09
2022-12-08T12:06:54.642Z,6.07
2022-12-08T12:09:21.912Z,6.07
2022-12-08T12:11:48.301Z,6.09
2022-12-08T12:14:14.724Z,6.11
2022-12-08T12:16:41.243Z,6.11
2022-12-08T12:19:07.722Z,6.18
2022-12-08T12:21:34.190Z,6.20
2022-12-08T12:24:01.238Z,6.22
2022-12-08T12:26:27.878Z,6.22
2022-12-08T12:28:54.542Z,6.24
2022-12-08T12:31:21.188Z,6.24
2022-12-08T12:33:47.852Z,6.20
2022-12-08T12:36:14.482Z,6.17
2022-12-08T12:38:41.115Z,6.21
2022-12-08T12:41:07.769Z,6.18
2022-12-08T12:46:19.158Z,6.18
2022-12-08T12:48:46.743Z,6.22
2022-12-08T12:51:13.342Z,6.26
2022-12-08T12:53:40.917Z,6.17
2022-12-08T12:56:09.539Z,6.08
2022-12-08T12:58:37.118Z,6.06
2022-12-08T13:01:03.578Z,6.06
2022-12-08T13:03:30.061Z,6.07
2022-12-08T13:05:56.517Z,6.12
2022-12-08T13:08:23.061Z,6.15
2022-12-08T13:10:49.584Z,6.13
2022-12-08T13:13:16.006Z,6.10
2022-12-08T13:15:42.487Z,6.08
2022-12-08T13:18:09.829Z,6.02
2022-12-08T13:20:37.417Z,5.94
2022-12-08T13:23:05.014Z,5.91
2022-12-08T13:25:36.651Z,5.90
2022-12-08T13:28:04.358Z,5.86
2022-12-08T13:35:39.911Z,5.91
2022-12-08T13:38:06.785Z,5.96
2022-12-08T13:40:34.378Z,5.96
2022-12-08T13:43:01.994Z,6.00
2022-12-08T13:46:04.342Z,5.97
2022-12-08T13:48:35.575Z,5.91
2022-12-08T13:54:51.850Z,5.73
2022-12-08T13:57:02.701Z,5.62
2022-12-08T13:59:22.936Z,5.56
2022-12-08T14:01:49.611Z,5.49
2022-12-08T14:07:03.808Z,5.41
2022-12-08T14:09:30.433Z,5.41
2022-12-08T14:11:57.998Z,5.38
2022-12-08T14:14:53.689Z,5.31
2022-12-08T14:17:11.260Z,5.28
2022-12-08T14:19:38.843Z,5.21
2022-12-08T14:22:07.952Z,5.17
2022-12-08T14:24:36.037Z,5.09
2022-12-08T14:27:03.638Z,4.98
2022-12-08T14:29:32.855Z,4.92
2022-12-08T14:31:59.831Z,4.86
2022-12-08T14:34:28.421Z,4.80
2022-12-08T14:36:54.918Z,4.77
2022-12-08T14:39:21.737Z,4.78
2022-12-08T14:41:48.187Z,4.67
2022-12-08T14:44:14.656Z,4.62
2022-12-08T14:46:41.099Z,4.57
2022-12-08T14:49:07.643Z,4.53
2022-12-08T14:51:34.571Z,4.49
2022-12-08T14:54:02.208Z,4.49
2022-12-08T14:56:31.202Z,4.39
2022-12-08T14:58:59.356Z,4.31
2022-12-08T15:01:25.968Z,4.23
2022-12-08T15:03:53.557Z,4.14
2022-12-08T15:06:22.930Z,4.08
2022-12-08T15:08:49.754Z,4.00
2022-12-08T15:11:16.654Z,3.91
2022-12-08T15:13:43.970Z,3.83
2022-12-08T15:16:11.635Z,3.74
2022-12-08T15:18:39.181Z,3.67
2022-12-08T15:21:06.769Z,3.60
2022-12-08T15:23:34.360Z,3.53
2022-12-08T15:26:01.938Z,3.44
2022-12-08T15:28:30.366Z,3.34
2022-12-08T15:30:58.238Z,3.33
2022-12-08T15:33:25.742Z,3.21
2022-12-08T15:35:52.427Z,3.12
2022-12-08T15:38:19.921Z,3.07
2022-12-08T15:40:46.520Z,3.06
2022-12-08T15:43:14.140Z,3.14
2022-12-08T15:45:54.856Z,3.02
2022-12-08T15:48:25.386Z,2.89
2022-12-08T15:50:51.987Z,2.78
2022-12-08T15:53:19.574Z,2.72
2022-12-08T15:56:03.849Z,2.72
2022-12-08T16:01:19.558Z,2.62
2022-12-08T16:09:21.643Z,2.58
2022-12-08T16:12:06.039Z,2.60
2022-12-08T16:17:20.420Z,2.53
2022-12-08T16:19:48.010Z,2.48
2022-12-08T16:25:17.641Z,2.44
2022-12-08T16:28:12.289Z,2.43
2022-12-08T16:30:32.930Z,2.42
2022-12-08T16:32:59.457Z,2.42
2022-12-08T16:35:25.940Z,2.43
2022-12-08T16:37:52.389Z,2.45
2022-12-08T16:40:18.862Z,2.46
2022-12-08T16:42:45.589Z,2.46
2022-12-08T16:45:13.153Z,2.46
2022-12-08T16:47:39.775Z,2.47
2022-12-08T16:50:06.219Z,2.55
2022-12-08T16:52:32.682Z,2.48
2022-12-08T16:54:59.182Z,2.46
2022-12-08T16:57:26.220Z,2.46
2022-12-08T16:59:52.854Z,2.48
2022-12-08T17:02:21.976Z,2.51
2022-12-08T17:04:49.108Z,2.52
2022-12-08T17:07:16.685Z,2.51
2022-12-08T17:09:43.542Z,2.52
2022-12-08T17:12:10.032Z,2.49
2022-12-08T17:14:36.447Z,2.45
2022-12-08T17:17:03.429Z,2.46
2022-12-08T17:19:30.701Z,2.45
2022-12-08T17:21:58.306Z,2.43
2022-12-08T17:24:25.889Z,2.42
2022-12-08T17:26:52.478Z,2.38
2022-12-08T17:29:19.085Z,2.33
2022-12-08T17:31:45.700Z,2.27
2022-12-08T17:34:13.285Z,2.23
2022-12-08T17:36:40.854Z,2.24
2022-12-08T17:39:07.452Z,2.27
2022-12-08T17:41:34.030Z,2.31
2022-12-08T17:44:01.657Z,2.37
2022-12-08T17:46:29.289Z,2.41
2022-12-08T17:48:56.189Z,2.45
2022-12-08T17:51:23.418Z,2.53
2022-12-08T17:53:51.018Z,2.59
2022-12-08T17:56:18.629Z,2.64
2022-12-08T17:58:49.855Z,2.69
2022-12-08T18:01:20.681Z,2.73
2022-12-08T18:03:47.248Z,2.82
2022-12-08T18:06:14.002Z,2.86
2022-12-08T18:08:40.468Z,2.92
2022-12-08T18:11:07.188Z,2.98
2022-12-08T18:13:34.793Z,3.06
2022-12-08T18:16:03.398Z,3.09
2022-12-08T18:18:29.971Z,3.13
2022-12-08T18:20:56.457Z,3.15
2022-12-08T18:23:23.176Z,3.16
2022-12-08T18:25:50.864Z,3.18
2022-12-08T18:28:18.365Z,3.21
2022-12-08T18:30:46.032Z,3.22
2022-12-08T18:33:13.554Z,3.24
2022-12-08T18:35:41.140Z,3.28
2022-12-08T18:38:07.732Z,3.31
2022-12-08T18:40:34.329Z,3.36
2022-12-08T18:43:00.931Z,3.37
2022-12-08T18:45:27.544Z,3.39
2022-12-08T18:47:54.129Z,3.41
2022-12-08T18:50:20.772Z,3.44
2022-12-08T18:52:48.315Z,3.47
2022-12-08T18:55:14.977Z,3.49
2022-12-08T18:57:42.571Z,3.57
2022-12-08T19:00:09.435Z,3.52
2022-12-08T19:02:36.798Z,3.50
2022-12-08T19:05:04.011Z,3.54
2022-12-08T19:07:30.449Z,3.55
2022-12-08T19:09:57.422Z,3.56
2022-12-08T19:12:23.909Z,3.57
2022-12-08T19:14:50.338Z,3.60
2022-12-08T19:17:16.813Z,3.57
2022-12-08T19:19:43.291Z,3.57
2022-12-08T19:22:10.143Z,3.58
2022-12-08T19:24:36.611Z,3.60
2022-12-08T19:27:03.686Z,3.54
2022-12-08T19:29:30.731Z,3.56
2022-12-08T19:31:57.859Z,3.61
2022-12-08T19:34:25.428Z,3.67
2022-12-08T19:36:52.048Z,3.71
2022-12-08T19:39:21.029Z,3.73
2022-12-08T19:41:49.287Z,3.78
2022-12-08T19:44:16.884Z,3.80
2022-12-08T19:46:44.603Z,3.81
2022-12-08T19:49:11.939Z,3.80
2022-12-08T19:51:39.693Z,3.81
2022-12-08T19:54:07.322Z,3.80
2022-12-08T19:56:33.935Z,3.78
2022-12-08T19:59:02.522Z,3.77
2022-12-08T20:01:30.205Z,3.74
2022-12-08T20:03:57.732Z,3.73
2022-12-08T20:06:24.312Z,3.71
2022-12-08T20:08:52.025Z,3.68
2022-12-08T20:11:19.508Z,3.70
2022-12-08T20:13:46.117Z,3.70
2022-12-08T20:16:12.689Z,3.73
2022-12-08T20:18:39.388Z,3.75
2022-12-08T20:21:08.342Z,3.74
2022-12-08T20:23:37.783Z,3.73
2022-12-08T20:26:05.348Z,3.72
2022-12-08T20:28:32.820Z,3.67
2022-12-08T20:30:59.504Z,3.65
2022-12-08T20:33:27.052Z,3.65
2022-12-08T20:35:58.825Z,3.67
2022-12-08T20:38:26.244Z,3.70
2022-12-08T20:40:52.869Z,3.73
2022-12-08T20:43:20.468Z,3.68
2022-12-08T20:45:48.011Z,3.66
2022-12-08T20:48:15.675Z,3.70
2022-12-08T20:50:43.232Z,3.73
2022-12-08T20:53:09.920Z,3.67
2022-12-08T20:55:37.682Z,3.67
2022-12-08T20:58:05.249Z,3.69
2022-12-08T21:00:32.850Z,3.69
2022-12-08T21:03:00.808Z,3.71
2022-12-08T21:05:28.259Z,3.71
2022-12-08T21:07:55.855Z,3.72
2022-12-08T21:10:23.445Z,3.75
2022-12-08T21:12:50.365Z,3.78
2022-12-08T21:15:17.642Z,3.81
2022-12-08T21:17:45.255Z,3.82
2022-12-08T21:20:12.945Z,3.86
2022-12-08T21:22:40.551Z,3.87
2022-12-08T21:25:08.217Z,3.85
2022-12-08T21:27:35.768Z,3.80
2022-12-08T21:30:03.745Z,3.74
2022-12-08T21:32:31.092Z,3.74
2022-12-08T21:34:58.667Z,3.77
2022-12-08T21:37:26.157Z,3.82
2022-12-08T21:39:52.856Z,3.81
2022-12-08T21:42:22.715Z,3.75
2022-12-08T21:44:50.234Z,3.75
2022-12-08T21:47:17.781Z,3.76
2022-12-08T21:49:45.328Z,3.77
2022-12-08T21:52:12.981Z,3.80
2022-12-08T21:54:40.569Z,3.83
2022-12-08T21:57:09.309Z,3.85
2022-12-08T21:59:36.889Z,3.86
2022-12-08T22:02:04.522Z,3.88
2022-12-08T22:04:32.184Z,3.88
2022-12-08T22:06:59.662Z,3.88
2022-12-08T22:09:26.323Z,3.84
2022-12-08T22:11:55.559Z,3.82
2022-12-08T22:14:22.529Z,3.75
2022-12-08T22:16:49.345Z,3.73
2022-12-08T22:19:16.756Z,3.68
2022-12-08T22:21:43.249Z,3.71
2022-12-08T22:24:09.935Z,3.65
2022-12-08T22:26:36.744Z,3.60
2022-12-08T22:29:04.191Z,3.59
2022-12-08T22:31:30.858Z,3.58
2022-12-08T22:33:58.393Z,3.57
2022-12-08T22:36:25.062Z,3.61
2022-12-08T22:38:52.862Z,3.63
2022-12-08T22:41:20.247Z,3.58
2022-12-08T22:43:47.903Z,3.60
2022-12-08T22:46:15.547Z,3.64
2022-12-08T22:48:43.205Z,3.68
2022-12-08T22:51:10.685Z,3.75
2022-12-08T22:53:38.192Z,3.74
2022-12-08T22:56:05.834Z,3.77
2022-12-08T22:58:32.442Z,3.81
2022-12-08T23:01:00.038Z,3.84
2022-12-08T23:03:26.647Z,3.85
2022-12-08T23:05:53.149Z,3.87
2022-12-08T23:08:20.924Z,3.90
2022-12-08T23:10:48.384Z,3.91
2022-12-08T23:13:14.951Z,3.88
2022-12-08T23:15:42.621Z,3.85
2022-12-08T23:18:10.320Z,3.84
2022-12-08T23:20:37.817Z,3.80
2022-12-08T23:23:05.437Z,3.80
2022-12-08T23:25:33.079Z,3.73
2022-12-08T23:28:00.773Z,3.72
2022-12-08T23:30:27.374Z,3.67
2022-12-08T23:32:54.758Z,3.67
2022-12-08T23:35:22.334Z,3.66
2022-12-08T23:37:49.892Z,3.66
2022-12-08T23:40:17.691Z,3.69
2022-12-08T23:42:45.069Z,3.46
2022-12-08T23:45:12.954Z,3.36
2022-12-08T23:47:41.442Z,3.27
2022-12-08T23:50:09.054Z,3.22
2022-12-08T23:52:39.250Z,3.26
2022-12-08T23:55:07.079Z,3.32
2022-12-08T23:57:34.708Z,3.26
